Clarion, Iowa
Current Conditions -  °F | °C
As of 4:55 PM on Friday 28 Nov 2014 (Local Time) from KCAV Reporting Station
Clear Clear  
Wind Chill: 15°   Ceiling: Unl
Heat Index: 27°   Visibility: 9mi
Dew Point: 27°   Wind: 14mph
Humidity: 100%   Direction: 140°SE
Pressure: 29.75"   Gusts: NA
Location:  42.73°N, 93.73°W
Report Text: KCAV 282255Z AUTO 14012KT 9SM CLR M03/M03 A2975 RMK AO2
Loading
Personal Weather Stations






























Interactive Weather Map New forecast layout! Learn more

10-Day Weather Forecast

Advertisements
Track Severe Weather on mobile